sensor_id;sensor_type;location;lat;lon;timestamp;temperature;humidity
68912;SHT31;55953;51.650;-0.522;2024-01-15T00:02:25;1.11;77.67
68912;SHT31;55953;51.650;-0.522;2024-01-15T00:04:53;1.10;77.60
68912;SHT31;55953;51.650;-0.522;2024-01-15T00:07:21;1.07;77.65
68912;SHT31;55953;51.650;-0.522;2024-01-15T00:09:49;1.03;77.70
68912;SHT31;55953;51.650;-0.522;2024-01-15T00:12:17;1.01;77.71
68912;SHT31;55953;51.650;-0.522;2024-01-15T00:14:45;0.98;77.75
68912;SHT31;55953;51.650;-0.522;2024-01-15T00:17:13;0.93;77.92
68912;SHT31;55953;51.650;-0.522;2024-01-15T00:19:41;0.92;78.02
68912;SHT31;55953;51.650;-0.522;2024-01-15T00:22:08;0.91;77.94
68912;SHT31;55953;51.650;-0.522;2024-01-15T00:24:36;0.86;77.99
68912;SHT31;55953;51.650;-0.522;2024-01-15T00:27:04;0.80;78.11
68912;SHT31;55953;51.650;-0.522;2024-01-15T00:29:32;0.76;78.29
68912;SHT31;55953;51.650;-0.522;2024-01-15T00:32:00;0.73;78.32
68912;SHT31;55953;51.650;-0.522;2024-01-15T00:34:28;0.70;78.41
68912;SHT31;55953;51.650;-0.522;2024-01-15T00:36:56;0.68;78.50
68912;SHT31;55953;51.650;-0.522;2024-01-15T00:39:24;0.65;78.76
68912;SHT31;55953;51.650;-0.522;2024-01-15T00:41:53;0.63;78.80
68912;SHT31;55953;51.650;-0.522;2024-01-15T00:44:21;0.62;78.89
68912;SHT31;55953;51.650;-0.522;2024-01-15T00:46:49;0.61;78.96
68912;SHT31;55953;51.650;-0.522;2024-01-15T00:49:17;0.61;79.06
68912;SHT31;55953;51.650;-0.522;2024-01-15T00:51:45;0.61;79.09
68912;SHT31;55953;51.650;-0.522;2024-01-15T00:54:13;0.60;79.09
68912;SHT31;55953;51.650;-0.522;2024-01-15T00:56:41;0.58;79.07
68912;SHT31;55953;51.650;-0.522;2024-01-15T00:59:09;0.57;79.14
68912;SHT31;55953;51.650;-0.522;2024-01-15T01:01:38;0.54;79.18
68912;SHT31;55953;51.650;-0.522;2024-01-15T01:04:06;0.54;79.29
68912;SHT31;55953;51.650;-0.522;2024-01-15T01:06:34;0.54;79.29
68912;SHT31;55953;51.650;-0.522;2024-01-15T01:09:02;0.51;79.23
68912;SHT31;55953;51.650;-0.522;2024-01-15T01:11:30;0.49;79.28
68912;SHT31;55953;51.650;-0.522;2024-01-15T01:13:58;0.45;79.37
68912;SHT31;55953;51.650;-0.522;2024-01-15T01:16:26;0.38;79.53
68912;SHT31;55953;51.650;-0.522;2024-01-15T01:18:54;0.33;79.63
68912;SHT31;55953;51.650;-0.522;2024-01-15T01:21:22;0.28;79.89
68912;SHT31;55953;51.650;-0.522;2024-01-15T01:23:50;0.26;80.07
68912;SHT31;55953;51.650;-0.522;2024-01-15T01:26:18;0.27;80.12
68912;SHT31;55953;51.650;-0.522;2024-01-15T01:28:46;0.30;80.14
68912;SHT31;55953;51.650;-0.522;2024-01-15T01:31:14;0.28;80.10
68912;SHT31;55953;51.650;-0.522;2024-01-15T01:33:44;0.25;80.13
68912;SHT31;55953;51.650;-0.522;2024-01-15T01:36:12;0.23;80.26
68912;SHT31;55953;51.650;-0.522;2024-01-15T01:38:40;0.22;80.36
68912;SHT31;55953;51.650;-0.522;2024-01-15T01:41:08;0.22;80.41
68912;SHT31;55953;51.650;-0.522;2024-01-15T01:43:36;0.23;80.36
68912;SHT31;55953;51.650;-0.522;2024-01-15T01:46:04;0.21;80.34
68912;SHT31;55953;51.650;-0.522;2024-01-15T01:48:33;0.21;80.50
68912;SHT31;55953;51.650;-0.522;2024-01-15T01:51:02;0.21;80.57
68912;SHT31;55953;51.650;-0.522;2024-01-15T01:53:32;0.21;80.53
68912;SHT31;55953;51.650;-0.522;2024-01-15T01:56:03;0.20;80.50
68912;SHT31;55953;51.650;-0.522;2024-01-15T01:58:32;0.20;80.55
68912;SHT31;55953;51.650;-0.522;2024-01-15T02:01:01;0.20;80.50
68912;SHT31;55953;51.650;-0.522;2024-01-15T02:03:30;0.20;80.40
68912;SHT31;55953;51.650;-0.522;2024-01-15T02:05:59;0.21;80.38
68912;SHT31;55953;51.650;-0.522;2024-01-15T02:08:28;0.20;80.26
68912;SHT31;55953;51.650;-0.522;2024-01-15T02:10:56;0.21;80.22
68912;SHT31;55953;51.650;-0.522;2024-01-15T02:13:24;0.21;80.13
68912;SHT31;55953;51.650;-0.522;2024-01-15T02:15:52;0.20;80.10
68912;SHT31;55953;51.650;-0.522;2024-01-15T02:18:20;0.21;80.02
68912;SHT31;55953;51.650;-0.522;2024-01-15T02:20:49;0.20;79.90
68912;SHT31;55953;51.650;-0.522;2024-01-15T02:23:16;0.21;79.86
68912;SHT31;55953;51.650;-0.522;2024-01-15T02:25:46;0.20;79.72
68912;SHT31;55953;51.650;-0.522;2024-01-15T02:28:15;0.21;79.63
68912;SHT31;55953;51.650;-0.522;2024-01-15T02:30:45;0.20;79.57
68912;SHT31;55953;51.650;-0.522;2024-01-15T02:33:13;0.25;79.42
68912;SHT31;55953;51.650;-0.522;2024-01-15T02:35:42;0.26;79.23
68912;SHT31;55953;51.650;-0.522;2024-01-15T02:38:10;0.28;79.04
68912;SHT31;55953;51.650;-0.522;2024-01-15T02:40:38;0.29;78.91
68912;SHT31;55953;51.650;-0.522;2024-01-15T02:43:06;0.28;78.84
68912;SHT31;55953;51.650;-0.522;2024-01-15T02:45:34;0.34;78.91
68912;SHT31;55953;51.650;-0.522;2024-01-15T02:48:02;0.36;78.61
68912;SHT31;55953;51.650;-0.522;2024-01-15T02:50:30;0.34;78.51
68912;SHT31;55953;51.650;-0.522;2024-01-15T02:52:58;0.34;78.52
68912;SHT31;55953;51.650;-0.522;2024-01-15T02:55:26;0.32;78.44
68912;SHT31;55953;51.650;-0.522;2024-01-15T02:57:57;0.28;78.39
68912;SHT31;55953;51.650;-0.522;2024-01-15T03:00:25;0.26;78.57
68912;SHT31;55953;51.650;-0.522;2024-01-15T03:02:53;0.24;78.48
68912;SHT31;55953;51.650;-0.522;2024-01-15T03:05:22;0.16;78.54
68912;SHT31;55953;51.650;-0.522;2024-01-15T03:07:50;0.09;78.79
68912;SHT31;55953;51.650;-0.522;2024-01-15T03:10:18;0.02;79.14
68912;SHT31;55953;51.650;-0.522;2024-01-15T03:12:46;-0.00;79.43
68912;SHT31;55953;51.650;-0.522;2024-01-15T03:15:14;0.00;79.61
68912;SHT31;55953;51.650;-0.522;2024-01-15T03:17:42;-0.00;79.72
68912;SHT31;55953;51.650;-0.522;2024-01-15T03:20:11;-0.00;79.94
68912;SHT31;55953;51.650;-0.522;2024-01-15T03:22:39;-0.00;79.98
68912;SHT31;55953;51.650;-0.522;2024-01-15T03:25:07;0.02;80.05
68912;SHT31;55953;51.650;-0.522;2024-01-15T03:27:35;-0.02;79.97
68912;SHT31;55953;51.650;-0.522;2024-01-15T03:30:03;-0.08;80.09
68912;SHT31;55953;51.650;-0.522;2024-01-15T03:32:32;-0.13;80.19
68912;SHT31;55953;51.650;-0.522;2024-01-15T03:35:00;-0.15;80.24
68912;SHT31;55953;51.650;-0.522;2024-01-15T03:37:28;-0.16;80.30
68912;SHT31;55953;51.650;-0.522;2024-01-15T03:39:56;-0.18;80.22
68912;SHT31;55953;51.650;-0.522;2024-01-15T03:42:24;-0.22;80.32
68912;SHT31;55953;51.650;-0.522;2024-01-15T03:44:52;-0.28;80.50
68912;SHT31;55953;51.650;-0.522;2024-01-15T03:47:20;-0.30;80.71
68912;SHT31;55953;51.650;-0.522;2024-01-15T03:49:48;-0.26;80.72
68912;SHT31;55953;51.650;-0.522;2024-01-15T03:52:16;-0.25;80.76
68912;SHT31;55953;51.650;-0.522;2024-01-15T03:54:44;-0.26;80.79
68912;SHT31;55953;51.650;-0.522;2024-01-15T03:57:12;-0.25;80.97
68912;SHT31;55953;51.650;-0.522;2024-01-15T03:59:40;-0.23;81.13
68912;SHT31;55953;51.650;-0.522;2024-01-15T04:02:09;-0.18;81.21
68912;SHT31;55953;51.650;-0.522;2024-01-15T04:04:40;-0.11;81.24
68912;SHT31;55953;51.650;-0.522;2024-01-15T04:07:10;-0.08;81.10
68912;SHT31;55953;51.650;-0.522;2024-01-15T04:09:38;-0.01;81.07
68912;SHT31;55953;51.650;-0.522;2024-01-15T04:12:06;0.02;81.07
68912;SHT31;55953;51.650;-0.522;2024-01-15T04:14:34;0.07;80.96
68912;SHT31;55953;51.650;-0.522;2024-01-15T04:17:02;0.09;80.87
68912;SHT31;55953;51.650;-0.522;2024-01-15T04:19:30;0.09;80.82
68912;SHT31;55953;51.650;-0.522;2024-01-15T04:21:58;0.09;81.00
68912;SHT31;55953;51.650;-0.522;2024-01-15T04:24:25;0.10;80.88
68912;SHT31;55953;51.650;-0.522;2024-01-15T04:26:53;0.08;80.89
68912;SHT31;55953;51.650;-0.522;2024-01-15T04:29:21;0.07;80.90
68912;SHT31;55953;51.650;-0.522;2024-01-15T04:31:49;0.06;80.99
68912;SHT31;55953;51.650;-0.522;2024-01-15T04:34:17;0.05;81.04
68912;SHT31;55953;51.650;-0.522;2024-01-15T04:36:45;0.05;81.05
68912;SHT31;55953;51.650;-0.522;2024-01-15T04:39:13;0.07;81.05
68912;SHT31;55953;51.650;-0.522;2024-01-15T04:41:41;0.06;81.10
68912;SHT31;55953;51.650;-0.522;2024-01-15T04:44:09;0.09;81.08
68912;SHT31;55953;51.650;-0.522;2024-01-15T04:46:37;0.09;81.15
68912;SHT31;55953;51.650;-0.522;2024-01-15T04:49:05;0.12;81.19
68912;SHT31;55953;51.650;-0.522;2024-01-15T04:51:33;0.11;81.05
68912;SHT31;55953;51.650;-0.522;2024-01-15T04:54:02;0.13;81.02
68912;SHT31;55953;51.650;-0.522;2024-01-15T04:56:30;0.14;81.02
68912;SHT31;55953;51.650;-0.522;2024-01-15T04:58:58;0.14;81.13
68912;SHT31;55953;51.650;-0.522;2024-01-15T05:01:29;0.15;81.15
68912;SHT31;55953;51.650;-0.522;2024-01-15T05:04:01;0.16;81.11
68912;SHT31;55953;51.650;-0.522;2024-01-15T05:06:29;0.17;81.11
68912;SHT31;55953;51.650;-0.522;2024-01-15T05:08:57;0.20;81.17
68912;SHT31;55953;51.650;-0.522;2024-01-15T05:11:25;0.20;81.10
68912;SHT31;55953;51.650;-0.522;2024-01-15T05:13:53;0.21;81.21
68912;SHT31;55953;51.650;-0.522;2024-01-15T05:16:21;0.22;81.14
68912;SHT31;55953;51.650;-0.522;2024-01-15T05:18:49;0.20;81.15
68912;SHT31;55953;51.650;-0.522;2024-01-15T05:21:17;0.20;81.13
68912;SHT31;55953;51.650;-0.522;2024-01-15T05:23:45;0.20;81.20
68912;SHT31;55953;51.650;-0.522;2024-01-15T05:26:13;0.19;81.22
68912;SHT31;55953;51.650;-0.522;2024-01-15T05:28:41;0.20;81.20
68912;SHT31;55953;51.650;-0.522;2024-01-15T05:31:10;0.20;81.24
68912;SHT31;55953;51.650;-0.522;2024-01-15T05:33:38;0.22;81.26
68912;SHT31;55953;51.650;-0.522;2024-01-15T05:36:06;0.28;81.15
68912;SHT31;55953;51.650;-0.522;2024-01-15T05:38:35;0.30;80.98
68912;SHT31;55953;51.650;-0.522;2024-01-15T05:41:03;0.33;80.85
68912;SHT31;55953;51.650;-0.522;2024-01-15T05:43:31;0.35;80.58
68912;SHT31;55953;51.650;-0.522;2024-01-15T05:45:59;0.36;80.37
68912;SHT31;55953;51.650;-0.522;2024-01-15T05:48:27;0.38;80.20
68912;SHT31;55953;51.650;-0.522;2024-01-15T05:50:55;0.37;80.10
68912;SHT31;55953;51.650;-0.522;2024-01-15T05:53:23;0.36;80.25
68912;SHT31;55953;51.650;-0.522;2024-01-15T05:55:50;0.36;80.15
68912;SHT31;55953;51.650;-0.522;2024-01-15T05:58:18;0.37;80.14
68912;SHT31;55953;51.650;-0.522;2024-01-15T06:00:46;0.34;80.16
68912;SHT31;55953;51.650;-0.522;2024-01-15T06:03:15;0.32;80.08
68912;SHT31;55953;51.650;-0.522;2024-01-15T06:05:43;0.32;79.92
68912;SHT31;55953;51.650;-0.522;2024-01-15T06:08:11;0.32;79.78
68912;SHT31;55953;51.650;-0.522;2024-01-15T06:10:39;0.30;79.72
68912;SHT31;55953;51.650;-0.522;2024-01-15T06:13:07;0.28;79.74
68912;SHT31;55953;51.650;-0.522;2024-01-15T06:15:35;0.26;79.67
68912;SHT31;55953;51.650;-0.522;2024-01-15T06:18:03;0.24;79.69
68912;SHT31;55953;51.650;-0.522;2024-01-15T06:20:32;0.23;79.53
68912;SHT31;55953;51.650;-0.522;2024-01-15T06:23:00;0.24;79.50
68912;SHT31;55953;51.650;-0.522;2024-01-15T06:25:28;0.22;79.45
68912;SHT31;55953;51.650;-0.522;2024-01-15T06:27:56;0.19;79.20
68912;SHT31;55953;51.650;-0.522;2024-01-15T06:30:24;0.17;78.97
68912;SHT31;55953;51.650;-0.522;2024-01-15T06:32:52;0.15;78.51
68912;SHT31;55953;51.650;-0.522;2024-01-15T06:35:20;0.14;78.58
68912;SHT31;55953;51.650;-0.522;2024-01-15T06:37:50;0.11;78.24
68912;SHT31;55953;51.650;-0.522;2024-01-15T06:40:18;0.09;78.02
68912;SHT31;55953;51.650;-0.522;2024-01-15T06:42:46;0.07;78.02
68912;SHT31;55953;51.650;-0.522;2024-01-15T06:45:14;0.04;78.00
68912;SHT31;55953;51.650;-0.522;2024-01-15T06:47:42;0.01;77.90
68912;SHT31;55953;51.650;-0.522;2024-01-15T06:50:09;0.00;77.48
68912;SHT31;55953;51.650;-0.522;2024-01-15T06:52:37;-0.00;77.52
68912;SHT31;55953;51.650;-0.522;2024-01-15T06:55:06;-0.04;77.53
68912;SHT31;55953;51.650;-0.522;2024-01-15T06:57:34;-0.07;77.29
68912;SHT31;55953;51.650;-0.522;2024-01-15T07:00:02;-0.09;77.27
68912;SHT31;55953;51.650;-0.522;2024-01-15T07:02:35;-0.11;77.37
68912;SHT31;55953;51.650;-0.522;2024-01-15T07:05:03;-0.14;77.28
68912;SHT31;55953;51.650;-0.522;2024-01-15T07:07:32;-0.19;77.28
68912;SHT31;55953;51.650;-0.522;2024-01-15T07:10:00;-0.23;77.10
68912;SHT31;55953;51.650;-0.522;2024-01-15T07:12:28;-0.26;77.33
68912;SHT31;55953;51.650;-0.522;2024-01-15T07:14:57;-0.30;77.46
68912;SHT31;55953;51.650;-0.522;2024-01-15T07:17:25;-0.33;77.45
68912;SHT31;55953;51.650;-0.522;2024-01-15T07:19:53;-0.34;77.35
68912;SHT31;55953;51.650;-0.522;2024-01-15T07:22:21;-0.38;77.31
68912;SHT31;55953;51.650;-0.522;2024-01-15T07:24:49;-0.38;77.29
68912;SHT31;55953;51.650;-0.522;2024-01-15T07:27:17;-0.40;77.39
68912;SHT31;55953;51.650;-0.522;2024-01-15T07:29:45;-0.41;77.28
68912;SHT31;55953;51.650;-0.522;2024-01-15T07:32:13;-0.44;77.34
68912;SHT31;55953;51.650;-0.522;2024-01-15T07:34:41;-0.45;77.39
68912;SHT31;55953;51.650;-0.522;2024-01-15T07:37:09;-0.47;77.58
68912;SHT31;55953;51.650;-0.522;2024-01-15T07:39:37;-0.50;77.63
68912;SHT31;55953;51.650;-0.522;2024-01-15T07:42:05;-0.52;77.66
68912;SHT31;55953;51.650;-0.522;2024-01-15T07:44:33;-0.54;77.56
68912;SHT31;55953;51.650;-0.522;2024-01-15T07:47:01;-0.54;77.58
68912;SHT31;55953;51.650;-0.522;2024-01-15T07:49:29;-0.55;77.60
68912;SHT31;55953;51.650;-0.522;2024-01-15T07:51:57;-0.56;77.47
68912;SHT31;55953;51.650;-0.522;2024-01-15T07:54:25;-0.56;77.38
68912;SHT31;55953;51.650;-0.522;2024-01-15T07:56:57;-0.56;77.31
68912;SHT31;55953;51.650;-0.522;2024-01-15T07:59:28;-0.58;77.23
68912;SHT31;55953;51.650;-0.522;2024-01-15T08:01:58;-0.60;77.26
68912;SHT31;55953;51.650;-0.522;2024-01-15T08:04:27;-0.60;77.12
68912;SHT31;55953;51.650;-0.522;2024-01-15T08:06:55;-0.57;77.26
68912;SHT31;55953;51.650;-0.522;2024-01-15T08:09:24;-0.57;77.26
68912;SHT31;55953;51.650;-0.522;2024-01-15T08:11:52;-0.60;77.11
68912;SHT31;55953;51.650;-0.522;2024-01-15T08:14:20;-0.57;76.86
68912;SHT31;55953;51.650;-0.522;2024-01-15T08:16:48;-0.56;76.97
68912;SHT31;55953;51.650;-0.522;2024-01-15T08:19:16;-0.56;76.95
68912;SHT31;55953;51.650;-0.522;2024-01-15T08:21:44;-0.56;76.77
68912;SHT31;55953;51.650;-0.522;2024-01-15T08:24:12;-0.52;76.66
68912;SHT31;55953;51.650;-0.522;2024-01-15T08:26:42;-0.48;76.85
68912;SHT31;55953;51.650;-0.522;2024-01-15T08:29:10;-0.47;76.96
68912;SHT31;55953;51.650;-0.522;2024-01-15T08:31:38;-0.46;77.02
68912;SHT31;55953;51.650;-0.522;2024-01-15T08:34:06;-0.45;77.18
68912;SHT31;55953;51.650;-0.522;2024-01-15T08:36:35;-0.44;77.32
68912;SHT31;55953;51.650;-0.522;2024-01-15T08:39:03;-0.44;77.44
68912;SHT31;55953;51.650;-0.522;2024-01-15T08:41:32;-0.43;77.67
68912;SHT31;55953;51.650;-0.522;2024-01-15T08:44:01;-0.40;77.79
68912;SHT31;55953;51.650;-0.522;2024-01-15T08:46:30;-0.39;77.95
68912;SHT31;55953;51.650;-0.522;2024-01-15T08:48:58;-0.37;78.03
68912;SHT31;55953;51.650;-0.522;2024-01-15T08:51:26;-0.34;78.06
68912;SHT31;55953;51.650;-0.522;2024-01-15T08:53:54;-0.31;78.18
68912;SHT31;55953;51.650;-0.522;2024-01-15T08:56:24;-0.28;78.12
68912;SHT31;55953;51.650;-0.522;2024-01-15T08:58:52;-0.20;78.10
68912;SHT31;55953;51.650;-0.522;2024-01-15T09:01:19;-0.14;77.92
68912;SHT31;55953;51.650;-0.522;2024-01-15T09:03:48;-0.08;77.81
68912;SHT31;55953;51.650;-0.522;2024-01-15T09:06:16;-0.00;77.68
68912;SHT31;55953;51.650;-0.522;2024-01-15T09:08:44;0.06;77.70
68912;SHT31;55953;51.650;-0.522;2024-01-15T09:11:12;0.11;77.68
68912;SHT31;55953;51.650;-0.522;2024-01-15T09:13:40;0.16;77.28
68912;SHT31;55953;51.650;-0.522;2024-01-15T09:16:08;0.23;76.86
68912;SHT31;55953;51.650;-0.522;2024-01-15T09:18:36;0.29;76.82
68912;SHT31;55953;51.650;-0.522;2024-01-15T09:21:04;0.37;76.57
68912;SHT31;55953;51.650;-0.522;2024-01-15T09:23:32;0.43;76.36
68912;SHT31;55953;51.650;-0.522;2024-01-15T09:26:00;0.46;76.36
68912;SHT31;55953;51.650;-0.522;2024-01-15T09:28:28;0.50;76.37
68912;SHT31;55953;51.650;-0.522;2024-01-15T09:30:56;0.53;75.91
68912;SHT31;55953;51.650;-0.522;2024-01-15T09:33:24;0.55;76.02
68912;SHT31;55953;51.650;-0.522;2024-01-15T09:35:52;0.58;76.04
68912;SHT31;55953;51.650;-0.522;2024-01-15T09:38:20;0.62;75.94
68912;SHT31;55953;51.650;-0.522;2024-01-15T09:40:48;0.64;75.86
68912;SHT31;55953;51.650;-0.522;2024-01-15T09:43:16;0.67;75.91
68912;SHT31;55953;51.650;-0.522;2024-01-15T09:45:45;0.68;75.76
68912;SHT31;55953;51.650;-0.522;2024-01-15T09:48:13;0.71;75.97
68912;SHT31;55953;51.650;-0.522;2024-01-15T09:50:42;0.72;75.47
68912;SHT31;55953;51.650;-0.522;2024-01-15T09:53:10;0.77;75.56
68912;SHT31;55953;51.650;-0.522;2024-01-15T09:55:41;0.77;75.29
68912;SHT31;55953;51.650;-0.522;2024-01-15T09:58:09;0.80;75.10
68912;SHT31;55953;51.650;-0.522;2024-01-15T10:00:38;0.82;75.14
68912;SHT31;55953;51.650;-0.522;2024-01-15T10:03:09;0.83;74.66
68912;SHT31;55953;51.650;-0.522;2024-01-15T10:05:38;0.87;74.69
68912;SHT31;55953;51.650;-0.522;2024-01-15T10:08:07;0.86;74.40
68912;SHT31;55953;51.650;-0.522;2024-01-15T10:10:35;0.88;74.31
68912;SHT31;55953;51.650;-0.522;2024-01-15T10:13:05;0.88;73.78
68912;SHT31;55953;51.650;-0.522;2024-01-15T10:15:34;0.90;74.04
68912;SHT31;55953;51.650;-0.522;2024-01-15T10:18:06;0.94;73.74
68912;SHT31;55953;51.650;-0.522;2024-01-15T10:20:34;0.97;73.58
68912;SHT31;55953;51.650;-0.522;2024-01-15T10:23:02;1.00;73.88
68912;SHT31;55953;51.650;-0.522;2024-01-15T10:25:31;1.04;73.87
68912;SHT31;55953;51.650;-0.522;2024-01-15T10:28:03;1.07;73.08
68912;SHT31;55953;51.650;-0.522;2024-01-15T10:30:32;1.12;72.27
68912;SHT31;55953;51.650;-0.522;2024-01-15T10:33:01;1.15;72.31
68912;SHT31;55953;51.650;-0.522;2024-01-15T10:35:33;1.18;70.91
68912;SHT31;55953;51.650;-0.522;2024-01-15T10:38:02;1.23;70.43
68912;SHT31;55953;51.650;-0.522;2024-01-15T10:40:30;1.28;70.32
68912;SHT31;55953;51.650;-0.522;2024-01-15T10:42:59;1.31;69.63
68912;SHT31;55953;51.650;-0.522;2024-01-15T10:45:27;1.33;69.88
68912;SHT31;55953;51.650;-0.522;2024-01-15T10:47:55;1.35;69.38
68912;SHT31;55953;51.650;-0.522;2024-01-15T10:50:27;1.38;69.10
68912;SHT31;55953;51.650;-0.522;2024-01-15T10:52:57;1.43;69.86
68912;SHT31;55953;51.650;-0.522;2024-01-15T10:55:25;1.44;68.53
68912;SHT31;55953;51.650;-0.522;2024-01-15T10:57:54;1.43;68.45
68912;SHT31;55953;51.650;-0.522;2024-01-15T11:00:24;1.42;67.49
68912;SHT31;55953;51.650;-0.522;2024-01-15T11:02:53;1.43;67.74
68912;SHT31;55953;51.650;-0.522;2024-01-15T11:05:25;1.47;68.38
68912;SHT31;55953;51.650;-0.522;2024-01-15T11:07:56;1.48;67.87
68912;SHT31;55953;51.650;-0.522;2024-01-15T11:10:40;1.48;67.65
68912;SHT31;55953;51.650;-0.522;2024-01-15T11:13:15;1.49;67.92
68912;SHT31;55953;51.650;-0.522;2024-01-15T11:15:54;1.47;67.38
68912;SHT31;55953;51.650;-0.522;2024-01-15T11:18:43;1.49;68.00
68912;SHT31;55953;51.650;-0.522;2024-01-15T11:21:30;1.50;67.45
68912;SHT31;55953;51.650;-0.522;2024-01-15T11:23:59;1.52;67.63
68912;SHT31;55953;51.650;-0.522;2024-01-15T11:26:36;1.56;68.14
68912;SHT31;55953;51.650;-0.522;2024-01-15T11:31:58;1.57;67.21
68912;SHT31;55953;51.650;-0.522;2024-01-15T11:37:26;1.63;67.11
68912;SHT31;55953;51.650;-0.522;2024-01-15T11:40:20;1.67;67.59
68912;SHT31;55953;51.650;-0.522;2024-01-15T11:42:50;1.69;67.11
68912;SHT31;55953;51.650;-0.522;2024-01-15T11:45:20;1.71;66.44
68912;SHT31;55953;51.650;-0.522;2024-01-15T11:50:46;1.76;65.93
68912;SHT31;55953;51.650;-0.522;2024-01-15T11:53:32;1.80;66.44
68912;SHT31;55953;51.650;-0.522;2024-01-15T11:56:18;1.85;66.04
68912;SHT31;55953;51.650;-0.522;2024-01-15T11:58:50;1.88;65.90
68912;SHT31;55953;51.650;-0.522;2024-01-15T12:01:19;1.93;65.61
68912;SHT31;55953;51.650;-0.522;2024-01-15T12:03:48;1.93;64.48
68912;SHT31;55953;51.650;-0.522;2024-01-15T12:06:16;1.93;64.70
68912;SHT31;55953;51.650;-0.522;2024-01-15T12:08:44;1.92;64.15
68912;SHT31;55953;51.650;-0.522;2024-01-15T12:11:13;1.97;65.01
68912;SHT31;55953;51.650;-0.522;2024-01-15T12:13:46;1.99;64.78
68912;SHT31;55953;51.650;-0.522;2024-01-15T12:16:14;2.03;64.65
68912;SHT31;55953;51.650;-0.522;2024-01-15T12:18:42;2.06;65.36
68912;SHT31;55953;51.650;-0.522;2024-01-15T12:21:10;2.12;65.43
68912;SHT31;55953;51.650;-0.522;2024-01-15T12:23:38;2.15;63.94
68912;SHT31;55953;51.650;-0.522;2024-01-15T12:26:07;2.18;63.71
68912;SHT31;55953;51.650;-0.522;2024-01-15T12:28:36;2.16;63.29
68912;SHT31;55953;51.650;-0.522;2024-01-15T12:31:04;2.16;63.49
68912;SHT31;55953;51.650;-0.522;2024-01-15T12:33:33;2.20;63.45
68912;SHT31;55953;51.650;-0.522;2024-01-15T12:36:01;2.19;62.39
68912;SHT31;55953;51.650;-0.522;2024-01-15T12:38:29;2.15;61.21
68912;SHT31;55953;51.650;-0.522;2024-01-15T12:40:57;2.13;61.21
68912;SHT31;55953;51.650;-0.522;2024-01-15T12:43:25;2.16;61.24
68912;SHT31;55953;51.650;-0.522;2024-01-15T12:45:53;2.19;61.72
68912;SHT31;55953;51.650;-0.522;2024-01-15T12:48:21;2.20;61.14
68912;SHT31;55953;51.650;-0.522;2024-01-15T12:50:51;2.22;61.09
68912;SHT31;55953;51.650;-0.522;2024-01-15T12:53:20;2.23;61.10
68912;SHT31;55953;51.650;-0.522;2024-01-15T12:55:47;2.20;61.13
68912;SHT31;55953;51.650;-0.522;2024-01-15T12:58:15;2.18;61.12
68912;SHT31;55953;51.650;-0.522;2024-01-15T13:00:47;2.18;61.23
68912;SHT31;55953;51.650;-0.522;2024-01-15T13:03:15;2.18;61.75
68912;SHT31;55953;51.650;-0.522;2024-01-15T13:05:44;2.18;62.06
68912;SHT31;55953;51.650;-0.522;2024-01-15T13:08:13;2.21;61.81
68912;SHT31;55953;51.650;-0.522;2024-01-15T13:10:41;2.25;62.11
68912;SHT31;55953;51.650;-0.522;2024-01-15T13:13:09;2.28;62.45
68912;SHT31;55953;51.650;-0.522;2024-01-15T13:15:37;2.30;62.67
68912;SHT31;55953;51.650;-0.522;2024-01-15T13:18:06;2.32;62.54
68912;SHT31;55953;51.650;-0.522;2024-01-15T13:20:34;2.34;61.61
68912;SHT31;55953;51.650;-0.522;2024-01-15T13:23:02;2.38;62.32
68912;SHT31;55953;51.650;-0.522;2024-01-15T13:25:31;2.40;62.67
68912;SHT31;55953;51.650;-0.522;2024-01-15T13:28:01;2.39;62.51
68912;SHT31;55953;51.650;-0.522;2024-01-15T13:30:30;2.40;61.67
68912;SHT31;55953;51.650;-0.522;2024-01-15T13:32:59;2.40;61.29
68912;SHT31;55953;51.650;-0.522;2024-01-15T13:35:32;2.39;60.74
68912;SHT31;55953;51.650;-0.522;2024-01-15T13:38:00;2.39;60.84
68912;SHT31;55953;51.650;-0.522;2024-01-15T13:40:27;2.36;60.74
68912;SHT31;55953;51.650;-0.522;2024-01-15T13:42:55;2.34;60.63
68912;SHT31;55953;51.650;-0.522;2024-01-15T13:45:24;2.32;60.12
68912;SHT31;55953;51.650;-0.522;2024-01-15T13:47:52;2.29;59.96
68912;SHT31;55953;51.650;-0.522;2024-01-15T13:50:19;2.27;59.30
68912;SHT31;55953;51.650;-0.522;2024-01-15T13:52:50;2.24;59.21
68912;SHT31;55953;51.650;-0.522;2024-01-15T13:55:18;2.23;60.21
68912;SHT31;55953;51.650;-0.522;2024-01-15T13:57:47;2.21;60.66
68912;SHT31;55953;51.650;-0.522;2024-01-15T14:00:15;2.22;61.45
68912;SHT31;55953;51.650;-0.522;2024-01-15T14:02:46;2.23;60.38
68912;SHT31;55953;51.650;-0.522;2024-01-15T14:05:15;2.23;60.27
68912;SHT31;55953;51.650;-0.522;2024-01-15T14:07:43;2.19;59.79
68912;SHT31;55953;51.650;-0.522;2024-01-15T14:10:11;2.16;59.81
68912;SHT31;55953;51.650;-0.522;2024-01-15T14:12:39;2.16;60.19
68912;SHT31;55953;51.650;-0.522;2024-01-15T14:15:08;2.17;60.72
68912;SHT31;55953;51.650;-0.522;2024-01-15T14:17:37;2.20;60.47
68912;SHT31;55953;51.650;-0.522;2024-01-15T14:20:05;2.18;58.83
68912;SHT31;55953;51.650;-0.522;2024-01-15T14:22:36;2.13;58.32
68912;SHT31;55953;51.650;-0.522;2024-01-15T14:25:04;2.12;58.26
68912;SHT31;55953;51.650;-0.522;2024-01-15T14:27:32;2.12;58.94
68912;SHT31;55953;51.650;-0.522;2024-01-15T14:30:00;2.12;58.20
68912;SHT31;55953;51.650;-0.522;2024-01-15T14:32:28;2.12;56.91
68912;SHT31;55953;51.650;-0.522;2024-01-15T14:34:56;2.14;57.51
68912;SHT31;55953;51.650;-0.522;2024-01-15T14:37:25;2.14;59.22
68912;SHT31;55953;51.650;-0.522;2024-01-15T14:39:53;2.14;58.35
68912;SHT31;55953;51.650;-0.522;2024-01-15T14:42:21;2.14;57.93
68912;SHT31;55953;51.650;-0.522;2024-01-15T14:44:49;2.14;57.28
68912;SHT31;55953;51.650;-0.522;2024-01-15T14:47:17;2.13;57.75
68912;SHT31;55953;51.650;-0.522;2024-01-15T14:49:48;2.15;58.48
68912;SHT31;55953;51.650;-0.522;2024-01-15T14:52:16;2.12;58.96
68912;SHT31;55953;51.650;-0.522;2024-01-15T14:54:44;2.09;57.21
68912;SHT31;55953;51.650;-0.522;2024-01-15T14:57:12;2.06;56.55
68912;SHT31;55953;51.650;-0.522;2024-01-15T14:59:40;2.03;56.74
68912;SHT31;55953;51.650;-0.522;2024-01-15T15:02:08;1.99;58.20
68912;SHT31;55953;51.650;-0.522;2024-01-15T15:04:39;1.95;58.79
68912;SHT31;55953;51.650;-0.522;2024-01-15T15:07:09;1.92;59.32
68912;SHT31;55953;51.650;-0.522;2024-01-15T15:09:38;1.88;58.24
68912;SHT31;55953;51.650;-0.522;2024-01-15T15:12:06;1.82;57.72
68912;SHT31;55953;51.650;-0.522;2024-01-15T15:14:34;1.77;57.88
68912;SHT31;55953;51.650;-0.522;2024-01-15T15:17:17;1.75;57.48
68912;SHT31;55953;51.650;-0.522;2024-01-15T15:19:45;1.72;56.83
68912;SHT31;55953;51.650;-0.522;2024-01-15T15:22:13;1.72;57.67
68912;SHT31;55953;51.650;-0.522;2024-01-15T15:24:41;1.69;57.53
68912;SHT31;55953;51.650;-0.522;2024-01-15T15:27:09;1.66;58.89
68912;SHT31;55953;51.650;-0.522;2024-01-15T15:29:37;1.61;58.40
68912;SHT31;55953;51.650;-0.522;2024-01-15T15:32:05;1.56;58.79
68912;SHT31;55953;51.650;-0.522;2024-01-15T15:34:33;1.52;58.56
68912;SHT31;55953;51.650;-0.522;2024-01-15T15:37:01;1.49;58.85
68912;SHT31;55953;51.650;-0.522;2024-01-15T15:39:29;1.46;58.94
68912;SHT31;55953;51.650;-0.522;2024-01-15T15:41:58;1.40;59.76
68912;SHT31;55953;51.650;-0.522;2024-01-15T15:44:26;1.34;59.97
68912;SHT31;55953;51.650;-0.522;2024-01-15T15:46:54;1.28;59.70